East Williston, New York
Current Conditions -  °F | °C
As of 1:51 AM on Wednesday 26 Nov 2014 (Local Time) from KJFK Reporting Station
Overcast Overcast  
Wind Chill: 51°   Ceiling: 14000
Heat Index: 51°   Visibility: 10mi
Dew Point: 28°   Wind: 5mph
Humidity: 41%   Direction: 290°WNW
Pressure: 30.18"   Gusts: NA
Location:  40.7596°N, 73.6421°W
Report Text: KJFK 260651Z 29004KT 10SM OVC140 11/M02 A3018 RMK AO2 SLP220 T01061022 $
Loading
Personal Weather Stations






























Interactive Weather Map New forecast layout! Learn more

10-Day Weather Forecast

Advertisements
Track Severe Weather on mobile